createdAt,value
2023-04-16T00:07:38.264Z,5.95
2023-04-16T00:22:39.821Z,5.98
2023-04-16T00:37:41.378Z,5.97
2023-04-16T00:52:42.959Z,6.03
2023-04-16T01:07:44.508Z,6.08
2023-04-16T01:22:46.070Z,6.04
2023-04-16T01:37:47.642Z,6.08
2023-04-16T01:52:49.741Z,6.02
2023-04-16T02:07:51.447Z,6.05
2023-04-16T02:22:53.300Z,6.02
2023-04-16T02:37:57.919Z,6.03
2023-04-16T02:52:59.628Z,5.98
2023-04-16T03:08:01.348Z,6.02
2023-04-16T03:23:03.005Z,6.01
2023-04-16T03:38:04.566Z,5.97
2023-04-16T03:53:06.230Z,5.97
2023-04-16T04:08:08.590Z,5.98
2023-04-16T04:23:11.136Z,5.97
2023-04-16T04:38:15.571Z,5.97
2023-04-16T04:53:18.022Z,5.97
2023-04-16T05:08:19.665Z,6.03
2023-04-16T05:23:21.247Z,6.01
2023-04-16T05:38:23.156Z,6.04
2023-04-16T05:53:24.758Z,6.09
2023-04-16T06:08:26.328Z,6.15
2023-04-16T06:23:27.954Z,6.26
2023-04-16T06:38:29.543Z,6.24
2023-04-16T06:53:31.137Z,6.25
2023-04-16T07:08:32.726Z,6.35
2023-04-16T07:23:34.682Z,6.47
2023-04-16T07:38:36.735Z,6.45
2023-04-16T07:53:38.346Z,6.45
2023-04-16T08:08:39.908Z,6.66
2023-04-16T08:23:41.527Z,6.67
2023-04-16T08:38:43.115Z,6.57
2023-04-16T08:53:44.820Z,6.70
2023-04-16T10:31:25.401Z,6.98
2023-04-16T10:46:27.152Z,6.97
2023-04-16T11:01:28.830Z,6.92
2023-04-16T11:16:30.600Z,6.92
2023-04-16T11:31:32.272Z,6.88
2023-04-16T11:46:33.878Z,6.85
2023-04-16T12:01:35.529Z,7.07
2023-04-16T12:16:37.310Z,6.93
2023-04-16T12:31:39.065Z,6.95
2023-04-16T12:46:40.695Z,7.10
2023-04-16T13:01:42.307Z,7.13
2023-04-16T13:16:44.263Z,7.18
2023-04-16T13:31:45.970Z,7.15
2023-04-16T13:46:47.997Z,7.17
2023-04-16T14:01:49.625Z,7.21
2023-04-16T14:16:51.384Z,7.14
2023-04-16T14:31:53.045Z,7.31
2023-04-16T14:46:55.472Z,7.56
2023-04-16T15:01:57.327Z,7.46
2023-04-16T15:16:58.969Z,7.42
2023-04-16T15:32:00.556Z,7.52
2023-04-16T15:47:02.116Z,7.43
2023-04-16T16:02:03.760Z,7.60
2023-04-16T16:17:05.423Z,7.46
2023-04-16T16:32:06.989Z,7.47
2023-04-16T16:47:08.629Z,7.46
2023-04-16T17:02:10.298Z,7.39
2023-04-16T17:17:11.931Z,7.29
2023-04-16T17:32:13.516Z,7.26
2023-04-16T17:47:15.475Z,7.21
2023-04-16T18:02:17.172Z,7.24
2023-04-16T18:17:18.817Z,7.25
2023-04-16T18:32:21.123Z,7.19
2023-04-16T18:47:22.919Z,7.11
2023-04-16T19:02:24.656Z,7.12
2023-04-16T19:17:26.814Z,7.19
2023-04-16T19:32:28.444Z,7.11
2023-04-16T19:47:30.094Z,7.15
2023-04-16T20:02:32.114Z,7.07
2023-04-16T20:17:33.838Z,7.06
2023-04-16T20:32:35.503Z,7.04
2023-04-16T20:47:37.279Z,7.06
2023-04-16T21:02:39.033Z,6.95
2023-04-16T21:17:40.926Z,6.91
2023-04-16T21:32:42.594Z,6.92
2023-04-16T21:47:44.372Z,6.88
2023-04-16T22:02:46.259Z,6.82
2023-04-16T22:17:48.686Z,6.79
2023-04-16T22:32:50.429Z,6.67
2023-04-16T22:47:52.056Z,6.71
2023-04-16T23:02:53.780Z,6.66
2023-04-16T23:17:55.829Z,6.62
2023-04-16T23:32:57.484Z,6.58
2023-04-16T23:47:59.136Z,6.56
